CSCLB LFPB-LFMN
Flight info
| Callsign | CSCLB |
|---|---|
| Flight time | 1h 9m |
| Altitude | 41000 |
| Route | LATRA DCT LAMUT DCT UTUVA DCT LERGA/N0457F370 DCT LIQID DCT LATAM DCT TUNUR DCT NISAR |
| Aircraft | CL60/M-SBDE1E2E3FGHIJ1J4J5J7M3RWXYZ/LB1V1D1 |
Departure
| Time | 2026-04-23 20:21 |
|---|---|
| Airport | Paris-Le Bourget International Airport (LFPB) |
Arrival
| Time | 2026-04-23 21:30 |
|---|---|
| Airport | Nice-Côte d'Azur Airport (LFMN) |
| Time | Latitude | Longitude | Altitude | Speed | Heading |
|---|---|---|---|---|---|
| 2026-04-23 20:20 | 48.91381 | 2.97611 | 13947 ft | 333 kts | 152° |
| 2026-04-23 20:20 | 48.89147 | 2.98585 | 14568 ft | 341 kts | 171° |
| 2026-04-23 20:20 | 48.86770 | 2.98386 | 15194 ft | 350 kts | 190° |
| 2026-04-23 20:21 | 48.84524 | 2.96922 | 15832 ft | 360 kts | 211° |
| 2026-04-23 20:21 | 48.82732 | 2.94260 | 16452 ft | 370 kts | 234° |
| 2026-04-23 20:21 | 48.81556 | 2.90758 | 17065 ft | 376 kts | 244° |
| 2026-04-23 20:21 | 48.80487 | 2.87116 | 17689 ft | 378 kts | 244° |
| 2026-04-23 20:22 | 48.79409 | 2.83487 | 18317 ft | 381 kts | 244° |
| 2026-04-23 20:22 | 48.78332 | 2.79867 | 18936 ft | 384 kts | 243° |
| 2026-04-23 20:22 | 48.77231 | 2.76174 | 19553 ft | 387 kts | 243° |
| 2026-04-23 20:22 | 48.76115 | 2.72440 | 20154 ft | 390 kts | 243° |
| 2026-04-23 20:23 | 48.74990 | 2.68680 | 20774 ft | 394 kts | 243° |
| 2026-04-23 20:23 | 48.73862 | 2.64919 | 21370 ft | 397 kts | 243° |
| 2026-04-23 20:23 | 48.72617 | 2.61201 | 21987 ft | 396 kts | 233° |
| 2026-04-23 20:23 | 48.70810 | 2.58106 | 22614 ft | 391 kts | 215° |
| 2026-04-23 20:24 | 48.68559 | 2.55848 | 23244 ft | 391 kts | 206° |
| 2026-04-23 20:24 | 48.66201 | 2.53756 | 24018 ft | 396 kts | 206° |
| 2026-04-23 20:24 | 48.63847 | 2.51654 | 24911 ft | 397 kts | 206° |
| 2026-04-23 20:24 | 48.61480 | 2.49542 | 25777 ft | 399 kts | 206° |
| 2026-04-23 20:25 | 48.59065 | 2.47392 | 26547 ft | 402 kts | 206° |
| 2026-04-23 20:25 | 48.56656 | 2.45250 | 27236 ft | 405 kts | 206° |
| 2026-04-23 20:25 | 48.54224 | 2.43091 | 27904 ft | 409 kts | 206° |
| 2026-04-23 20:25 | 48.51707 | 2.40939 | 28554 ft | 408 kts | 201° |
| 2026-04-23 20:26 | 48.48982 | 2.39633 | 29148 ft | 402 kts | 185° |
| 2026-04-23 20:26 | 48.46186 | 2.39498 | 29647 ft | 401 kts | 174° |
| 2026-04-23 20:26 | 48.43377 | 2.39725 | 30144 ft | 405 kts | 174° |
| 2026-04-23 20:26 | 48.40543 | 2.39947 | 30627 ft | 408 kts | 174° |
| 2026-04-23 20:27 | 48.37703 | 2.40168 | 31043 ft | 413 kts | 174° |
| 2026-04-23 20:27 | 48.34808 | 2.40392 | 31448 ft | 417 kts | 174° |
| 2026-04-23 20:27 | 48.31921 | 2.40616 | 31816 ft | 422 kts | 174° |
| 2026-04-23 20:27 | 48.28948 | 2.40941 | 32135 ft | 425 kts | 170° |
| 2026-04-23 20:28 | 48.26071 | 2.41900 | 32483 ft | 424 kts | 160° |
| 2026-04-23 20:28 | 48.23296 | 2.43379 | 32744 ft | 428 kts | 158° |
| 2026-04-23 20:28 | 48.20509 | 2.44913 | 33036 ft | 432 kts | 158° |
| 2026-04-23 20:28 | 48.17655 | 2.46468 | 33383 ft | 434 kts | 158° |
| 2026-04-23 20:29 | 48.14825 | 2.48003 | 33775 ft | 435 kts | 158° |
| 2026-04-23 20:29 | 48.11999 | 2.49529 | 34197 ft | 434 kts | 158° |
| 2026-04-23 20:29 | 48.09179 | 2.51046 | 34589 ft | 434 kts | 158° |
| 2026-04-23 20:29 | 48.06318 | 2.52565 | 34944 ft | 434 kts | 159° |
| 2026-04-23 20:30 | 48.03469 | 2.54012 | 35220 ft | 436 kts | 160° |
| 2026-04-23 20:30 | 47.97718 | 2.56859 | 35828 ft | 437 kts | 160° |
| 2026-04-23 20:30 | 47.94854 | 2.58272 | 36183 ft | 436 kts | 160° |
| 2026-04-23 20:31 | 47.91959 | 2.59700 | 36478 ft | 437 kts | 160° |
| 2026-04-23 20:31 | 47.89069 | 2.61123 | 36778 ft | 439 kts | 160° |
| 2026-04-23 20:31 | 47.86144 | 2.62561 | 37134 ft | 440 kts | 160° |
| 2026-04-23 20:31 | 47.83270 | 2.63971 | 37527 ft | 439 kts | 160° |
| 2026-04-23 20:32 | 47.80376 | 2.65389 | 37849 ft | 440 kts | 160° |
| 2026-04-23 20:32 | 47.77455 | 2.66819 | 38126 ft | 441 kts | 160° |
| 2026-04-23 20:32 | 47.74564 | 2.68232 | 38339 ft | 443 kts | 160° |
| 2026-04-23 20:32 | 47.71646 | 2.69657 | 38536 ft | 445 kts | 160° |
| 2026-04-23 20:33 | 47.68690 | 2.71098 | 38773 ft | 446 kts | 161° |
| 2026-04-23 20:33 | 47.65735 | 2.72537 | 39022 ft | 446 kts | 161° |
| 2026-04-23 20:33 | 47.62815 | 2.73956 | 39254 ft | 446 kts | 161° |
| 2026-04-23 20:33 | 47.59892 | 2.75374 | 39461 ft | 446 kts | 161° |
| 2026-04-23 20:34 | 47.56924 | 2.76813 | 39649 ft | 447 kts | 161° |
| 2026-04-23 20:34 | 47.53995 | 2.78230 | 39819 ft | 447 kts | 161° |
| 2026-04-23 20:34 | 47.51037 | 2.79662 | 39978 ft | 448 kts | 161° |
| 2026-04-23 20:34 | 47.48063 | 2.81099 | 40142 ft | 448 kts | 161° |
| 2026-04-23 20:35 | 47.45117 | 2.82520 | 40328 ft | 448 kts | 161° |
| 2026-04-23 20:35 | 47.42145 | 2.83953 | 40465 ft | 448 kts | 161° |
| 2026-04-23 20:35 | 47.39206 | 2.85368 | 40568 ft | 449 kts | 161° |
| 2026-04-23 20:35 | 47.36248 | 2.86791 | 40685 ft | 450 kts | 161° |
| 2026-04-23 20:36 | 47.33264 | 2.88224 | 40817 ft | 451 kts | 161° |
| 2026-04-23 20:36 | 47.30286 | 2.89652 | 40938 ft | 451 kts | 161° |
| 2026-04-23 20:36 | 47.27313 | 2.91077 | 41073 ft | 451 kts | 161° |
| 2026-04-23 20:36 | 47.24349 | 2.92495 | 41200 ft | 451 kts | 161° |
| 2026-04-23 20:37 | 47.18339 | 2.95365 | 41201 ft | 456 kts | 161° |
| 2026-04-23 20:37 | 47.12318 | 2.98230 | 41196 ft | 460 kts | 162° |
| 2026-04-23 20:38 | 47.06126 | 3.00834 | 41201 ft | 462 kts | 164° |
| 2026-04-23 20:38 | 46.99947 | 3.03375 | 41191 ft | 463 kts | 164° |
| 2026-04-23 20:39 | 46.93743 | 3.05921 | 41191 ft | 464 kts | 164° |
| 2026-04-23 20:39 | 46.87560 | 3.08453 | 41189 ft | 463 kts | 164° |
| 2026-04-23 20:40 | 46.81375 | 3.10980 | 41200 ft | 464 kts | 164° |
| 2026-04-23 20:40 | 46.75172 | 3.13509 | 41207 ft | 464 kts | 164° |
| 2026-04-23 20:41 | 46.68970 | 3.16032 | 41207 ft | 464 kts | 164° |
| 2026-04-23 20:41 | 46.62738 | 3.18562 | 41208 ft | 464 kts | 163° |
| 2026-04-23 20:42 | 46.56543 | 3.21070 | 41206 ft | 465 kts | 164° |
| 2026-04-23 20:42 | 46.50288 | 3.23598 | 41205 ft | 466 kts | 164° |
| 2026-04-23 20:43 | 46.44062 | 3.26107 | 41201 ft | 467 kts | 164° |
| 2026-04-23 20:43 | 46.37815 | 3.28620 | 41205 ft | 468 kts | 164° |
| 2026-04-23 20:44 | 46.31564 | 3.31128 | 41205 ft | 468 kts | 164° |
| 2026-04-23 20:44 | 46.25279 | 3.33643 | 41205 ft | 468 kts | 164° |
| 2026-04-23 20:45 | 46.18988 | 3.36155 | 41205 ft | 468 kts | 164° |
| 2026-04-23 20:45 | 46.12717 | 3.38653 | 41212 ft | 469 kts | 164° |
| 2026-04-23 20:46 | 46.06459 | 3.41140 | 41207 ft | 469 kts | 164° |
| 2026-04-23 20:46 | 46.00175 | 3.43632 | 41202 ft | 470 kts | 164° |
| 2026-04-23 20:47 | 45.93864 | 3.46128 | 41209 ft | 470 kts | 164° |
| 2026-04-23 20:47 | 45.87603 | 3.48599 | 41217 ft | 469 kts | 164° |
| 2026-04-23 20:48 | 45.81329 | 3.51240 | 41206 ft | 469 kts | 162° |
| 2026-04-23 20:48 | 45.75111 | 3.53927 | 41217 ft | 470 kts | 163° |
| 2026-04-23 20:49 | 45.68828 | 3.56634 | 41218 ft | 471 kts | 163° |
| 2026-04-23 20:49 | 45.62558 | 3.59328 | 41220 ft | 471 kts | 163° |
| 2026-04-23 20:50 | 45.56317 | 3.62002 | 41230 ft | 471 kts | 163° |
| 2026-04-23 20:50 | 45.50036 | 3.64687 | 41222 ft | 472 kts | 163° |
| 2026-04-23 20:51 | 45.43711 | 3.67383 | 41223 ft | 472 kts | 163° |
| 2026-04-23 20:51 | 45.37425 | 3.70057 | 41212 ft | 472 kts | 163° |
| 2026-04-23 20:52 | 45.31309 | 3.73287 | 41233 ft | 472 kts | 153° |
| 2026-04-23 20:52 | 45.25806 | 3.78343 | 41245 ft | 472 kts | 140° |
| 2026-04-23 20:53 | 45.21308 | 3.84984 | 41236 ft | 471 kts | 126° |
| 2026-04-23 20:53 | 45.17693 | 3.92706 | 41233 ft | 471 kts | 121° |
| 2026-04-23 20:54 | 45.14148 | 4.00479 | 41230 ft | 471 kts | 122° |
| 2026-04-23 20:54 | 45.10604 | 4.08230 | 41236 ft | 471 kts | 122° |
| 2026-04-23 20:55 | 45.07044 | 4.15991 | 41238 ft | 471 kts | 122° |
| 2026-04-23 20:55 | 45.03444 | 4.23673 | 41235 ft | 472 kts | 126° |
| 2026-04-23 20:56 | 44.99094 | 4.30595 | 41224 ft | 472 kts | 131° |
| 2026-04-23 20:56 | 44.94665 | 4.37395 | 41235 ft | 472 kts | 131° |
| 2026-04-23 20:57 | 44.90207 | 4.44228 | 41227 ft | 472 kts | 131° |
| 2026-04-23 20:57 | 44.85792 | 4.50977 | 41220 ft | 471 kts | 131° |
| 2026-04-23 20:58 | 44.81371 | 4.57722 | 41220 ft | 470 kts | 131° |
| 2026-04-23 20:58 | 44.76918 | 4.64501 | 41216 ft | 470 kts | 131° |
| 2026-04-23 20:59 | 44.72462 | 4.71269 | 40651 ft | 477 kts | 132° |
| 2026-04-23 20:59 | 44.70213 | 4.74678 | 40085 ft | 473 kts | 132° |
| 2026-04-23 20:59 | 44.68002 | 4.78024 | 39465 ft | 471 kts | 132° |
| 2026-04-23 21:00 | 44.65777 | 4.81389 | 38832 ft | 466 kts | 132° |
| 2026-04-23 21:00 | 44.63626 | 4.84674 | 38254 ft | 462 kts | 131° |
| 2026-04-23 21:00 | 44.61503 | 4.88061 | 37644 ft | 460 kts | 130° |
| 2026-04-23 21:00 | 44.59401 | 4.91424 | 37031 ft | 464 kts | 130° |
| 2026-04-23 21:01 | 44.57241 | 4.94874 | 36423 ft | 465 kts | 130° |
| 2026-04-23 21:01 | 44.55108 | 4.98277 | 35853 ft | 468 kts | 130° |
| 2026-04-23 21:01 | 44.52956 | 5.01706 | 35168 ft | 471 kts | 129° |
| 2026-04-23 21:01 | 44.50825 | 5.05097 | 34577 ft | 470 kts | 129° |
| 2026-04-23 21:02 | 44.48649 | 5.08557 | 33909 ft | 471 kts | 129° |
| 2026-04-23 21:02 | 44.46489 | 5.11987 | 33379 ft | 470 kts | 129° |
| 2026-04-23 21:02 | 44.44363 | 5.15360 | 32925 ft | 467 kts | 129° |
| 2026-04-23 21:02 | 44.42194 | 5.18797 | 32503 ft | 467 kts | 129° |
| 2026-04-23 21:03 | 44.40039 | 5.22206 | 31974 ft | 462 kts | 129° |
| 2026-04-23 21:03 | 44.37919 | 5.25489 | 31498 ft | 455 kts | 131° |
| 2026-04-23 21:03 | 44.35594 | 5.28405 | 31002 ft | 448 kts | 139° |
| 2026-04-23 21:03 | 44.33148 | 5.31076 | 30522 ft | 439 kts | 139° |
| 2026-04-23 21:04 | 44.30776 | 5.33661 | 30062 ft | 433 kts | 139° |
| 2026-04-23 21:04 | 44.28433 | 5.36213 | 29602 ft | 427 kts | 138° |
| 2026-04-23 21:04 | 44.26125 | 5.38726 | 29159 ft | 422 kts | 139° |
| 2026-04-23 21:04 | 44.23800 | 5.41255 | 28687 ft | 418 kts | 139° |
| 2026-04-23 21:05 | 44.21547 | 5.43703 | 28261 ft | 415 kts | 139° |
| 2026-04-23 21:05 | 44.19292 | 5.46153 | 27827 ft | 411 kts | 140° |
| 2026-04-23 21:05 | 44.17028 | 5.48607 | 27372 ft | 407 kts | 139° |
| 2026-04-23 21:05 | 44.14813 | 5.51009 | 26947 ft | 406 kts | 139° |
| 2026-04-23 21:06 | 44.12602 | 5.53404 | 26512 ft | 404 kts | 139° |
| 2026-04-23 21:06 | 44.10393 | 5.55795 | 26081 ft | 402 kts | 139° |
| 2026-04-23 21:06 | 44.08196 | 5.58171 | 25653 ft | 400 kts | 139° |
| 2026-04-23 21:06 | 44.05996 | 5.60546 | 25219 ft | 396 kts | 139° |
| 2026-04-23 21:07 | 44.03840 | 5.62872 | 24797 ft | 392 kts | 139° |
| 2026-04-23 21:07 | 44.01706 | 5.65172 | 24376 ft | 390 kts | 140° |
| 2026-04-23 21:07 | 43.99578 | 5.67464 | 23964 ft | 387 kts | 140° |
| 2026-04-23 21:07 | 43.97459 | 5.69745 | 23544 ft | 385 kts | 139° |
| 2026-04-23 21:08 | 43.95331 | 5.72033 | 23134 ft | 384 kts | 140° |
| 2026-04-23 21:08 | 43.93227 | 5.74293 | 22724 ft | 382 kts | 140° |
| 2026-04-23 21:08 | 43.91145 | 5.76529 | 22311 ft | 380 kts | 140° |
| 2026-04-23 21:08 | 43.89045 | 5.78780 | 21899 ft | 378 kts | 141° |
| 2026-04-23 21:09 | 43.86991 | 5.80979 | 21491 ft | 376 kts | 141° |
| 2026-04-23 21:09 | 43.84914 | 5.83202 | 21090 ft | 374 kts | 141° |
| 2026-04-23 21:09 | 43.82876 | 5.85378 | 20696 ft | 374 kts | 141° |
| 2026-04-23 21:09 | 43.80836 | 5.87555 | 20295 ft | 372 kts | 141° |
| 2026-04-23 21:10 | 43.78782 | 5.89745 | 19900 ft | 371 kts | 141° |
| 2026-04-23 21:10 | 43.76750 | 5.91909 | 19498 ft | 369 kts | 141° |
| 2026-04-23 21:10 | 43.74712 | 5.94078 | 19105 ft | 367 kts | 141° |
| 2026-04-23 21:10 | 43.72706 | 5.96210 | 18721 ft | 367 kts | 141° |
| 2026-04-23 21:11 | 43.70672 | 5.98372 | 18324 ft | 365 kts | 141° |
| 2026-04-23 21:11 | 43.68676 | 6.00489 | 17933 ft | 363 kts | 141° |
| 2026-04-23 21:11 | 43.66689 | 6.02597 | 17551 ft | 361 kts | 141° |
| 2026-04-23 21:11 | 43.64693 | 6.04711 | 17160 ft | 358 kts | 141° |
| 2026-04-23 21:12 | 43.62732 | 6.06787 | 16773 ft | 356 kts | 141° |
| 2026-04-23 21:12 | 43.60819 | 6.08874 | 16408 ft | 352 kts | 136° |
| 2026-04-23 21:12 | 43.59296 | 6.11496 | 16026 ft | 347 kts | 117° |
| 2026-04-23 21:12 | 43.58361 | 6.14540 | 15632 ft | 344 kts | 109° |
| 2026-04-23 21:13 | 43.57532 | 6.17579 | 15273 ft | 340 kts | 110° |
| 2026-04-23 21:13 | 43.56695 | 6.20619 | 14901 ft | 337 kts | 110° |
| 2026-04-23 21:13 | 43.55873 | 6.23603 | 14559 ft | 332 kts | 110° |
| 2026-04-23 21:13 | 43.55059 | 6.26548 | 14206 ft | 325 kts | 109° |
| 2026-04-23 21:14 | 43.54257 | 6.29449 | 13832 ft | 319 kts | 109° |
| 2026-04-23 21:14 | 43.53485 | 6.32250 | 13509 ft | 311 kts | 109° |
| 2026-04-23 21:14 | 43.52726 | 6.34990 | 13196 ft | 305 kts | 109° |
| 2026-04-23 21:14 | 43.51974 | 6.37697 | 12857 ft | 299 kts | 109° |
| 2026-04-23 21:15 | 43.51245 | 6.40328 | 12557 ft | 292 kts | 109° |
| 2026-04-23 21:15 | 43.50479 | 6.42927 | 12229 ft | 289 kts | 116° |
| 2026-04-23 21:15 | 43.49277 | 6.45100 | 11938 ft | 288 kts | 131° |
| 2026-04-23 21:15 | 43.47881 | 6.47092 | 11682 ft | 288 kts | 131° |
| 2026-04-23 21:16 | 43.46517 | 6.49060 | 11451 ft | 286 kts | 131° |
| 2026-04-23 21:16 | 43.45139 | 6.51045 | 11192 ft | 285 kts | 131° |
| 2026-04-23 21:16 | 43.43767 | 6.53019 | 10942 ft | 285 kts | 131° |
| 2026-04-23 21:16 | 43.42404 | 6.54984 | 10678 ft | 283 kts | 130° |
| 2026-04-23 21:17 | 43.41065 | 6.56919 | 10437 ft | 282 kts | 129° |
| 2026-04-23 21:17 | 43.39991 | 6.59163 | 10121 ft | 277 kts | 109° |
| 2026-04-23 21:17 | 43.39648 | 6.61701 | 9876 ft | 272 kts | 88° |
| 2026-04-23 21:17 | 43.40034 | 6.64242 | 9342 ft | 278 kts | 65° |
| 2026-04-23 21:18 | 43.40973 | 6.66500 | 9118 ft | 266 kts | 60° |
| 2026-04-23 21:18 | 43.41913 | 6.68689 | 8886 ft | 269 kts | 60° |
| 2026-04-23 21:18 | 43.42868 | 6.70933 | 8640 ft | 268 kts | 60° |
| 2026-04-23 21:18 | 43.43802 | 6.73124 | 8414 ft | 269 kts | 60° |
| 2026-04-23 21:19 | 43.44759 | 6.75368 | 8162 ft | 269 kts | 60° |
| 2026-04-23 21:19 | 43.45690 | 6.77559 | 7918 ft | 268 kts | 60° |
| 2026-04-23 21:19 | 43.46339 | 6.79936 | 7679 ft | 265 kts | 81° |
| 2026-04-23 21:19 | 43.46257 | 6.82443 | 7422 ft | 267 kts | 100° |
| 2026-04-23 21:20 | 43.45862 | 6.84972 | 7192 ft | 268 kts | 101° |
| 2026-04-23 21:20 | 43.45478 | 6.87455 | 6955 ft | 266 kts | 101° |
| 2026-04-23 21:20 | 43.45096 | 6.89929 | 6728 ft | 263 kts | 101° |
| 2026-04-23 21:20 | 43.44718 | 6.92378 | 6511 ft | 258 kts | 100° |
| 2026-04-23 21:21 | 43.44350 | 6.94755 | 6256 ft | 252 kts | 100° |
| 2026-04-23 21:21 | 43.43988 | 6.97092 | 6044 ft | 246 kts | 100° |
| 2026-04-23 21:21 | 43.43641 | 6.99334 | 5820 ft | 238 kts | 100° |
| 2026-04-23 21:21 | 43.43301 | 7.01529 | 5644 ft | 229 kts | 100° |
| 2026-04-23 21:22 | 43.42978 | 7.03615 | 5383 ft | 223 kts | 100° |
| 2026-04-23 21:22 | 43.42659 | 7.05671 | 5227 ft | 211 kts | 100° |
| 2026-04-23 21:22 | 43.42359 | 7.07601 | 5032 ft | 202 kts | 100° |
| 2026-04-23 21:22 | 43.42088 | 7.09408 | 4879 ft | 189 kts | 97° |
| 2026-04-23 21:23 | 43.42236 | 7.11172 | 4665 ft | 185 kts | 65° |
| 2026-04-23 21:23 | 43.43018 | 7.12533 | 4515 ft | 184 kts | 41° |
| 2026-04-23 21:23 | 43.43998 | 7.13697 | 4316 ft | 184 kts | 41° |
| 2026-04-23 21:23 | 43.44935 | 7.14818 | 4174 ft | 170 kts | 41° |
| 2026-04-23 21:24 | 43.45805 | 7.15840 | 3996 ft | 163 kts | 36° |
| 2026-04-23 21:24 | 43.46857 | 7.16317 | 3844 ft | 163 kts | 2° |
| 2026-04-23 21:24 | 43.47986 | 7.16216 | 3647 ft | 164 kts | 356° |
| 2026-04-23 21:24 | 43.49111 | 7.16086 | 3405 ft | 161 kts | 357° |
| 2026-04-23 21:25 | 43.50234 | 7.15974 | 3178 ft | 160 kts | 357° |
| 2026-04-23 21:25 | 43.51250 | 7.15873 | 3055 ft | 136 kts | 357° |
| 2026-04-23 21:25 | 43.52189 | 7.15785 | 2751 ft | 133 kts | 358° |
| 2026-04-23 21:25 | 43.53078 | 7.15721 | 2512 ft | 128 kts | 360° |
| 2026-04-23 21:26 | 43.53959 | 7.15701 | 2187 ft | 125 kts | 359° |
| 2026-04-23 21:26 | 43.54813 | 7.15662 | 1895 ft | 123 kts | 358° |
| 2026-04-23 21:26 | 43.55660 | 7.15600 | 1656 ft | 120 kts | 358° |
| 2026-04-23 21:26 | 43.56520 | 7.15545 | 1436 ft | 122 kts | 359° |
| 2026-04-23 21:27 | 43.57349 | 7.15504 | 1349 ft | 121 kts | 359° |
| 2026-04-23 21:27 | 43.58209 | 7.15461 | 1233 ft | 122 kts | 356° |
| 2026-04-23 21:27 | 43.59050 | 7.15415 | 1113 ft | 122 kts | 360° |
| 2026-04-23 21:27 | 43.59904 | 7.15446 | 1015 ft | 120 kts | 1° |
| 2026-04-23 21:28 | 43.60751 | 7.15511 | 919 ft | 122 kts | 4° |
| 2026-04-23 21:28 | 43.61588 | 7.15702 | 789 ft | 122 kts | 18° |
| 2026-04-23 21:28 | 43.62286 | 7.16331 | 748 ft | 122 kts | 45° |
| 2026-04-23 21:28 | 43.62873 | 7.17188 | 573 ft | 122 kts | 46° |
| 2026-04-23 21:29 | 43.63470 | 7.18046 | 472 ft | 123 kts | 43° |
| 2026-04-23 21:29 | 43.64081 | 7.18876 | 361 ft | 124 kts | 42° |
| 2026-04-23 21:29 | 43.64693 | 7.19741 | 193 ft | 124 kts | 40° |
| 2026-04-23 21:29 | 43.65301 | 7.20578 | 62 ft | 124 kts | 41° |
| 2026-04-23 21:30 | 43.65857 | 7.21335 | 18 ft | 82 kts | 45° |
| 2026-04-23 21:30 | 43.66123 | 7.21699 | 18 ft | 28 kts | 46° |
| 2026-04-23 21:30 | 43.66248 | 7.21871 | 18 ft | 24 kts | 41° |
| 2026-04-23 21:30 | 43.66388 | 7.21997 | 18 ft | 19 kts | 24° |
| 2026-04-23 21:31 | 43.66490 | 7.22051 | 18 ft | 12 kts | 19° |
| 2026-04-23 21:31 | 43.66564 | 7.22014 | 18 ft | 12 kts | 314° |
| 2026-04-23 21:31 | 43.66622 | 7.21934 | 18 ft | 10 kts | 316° |
| 2026-04-23 21:31 | 43.66637 | 7.21851 | 18 ft | 7 kts | 238° |
| 2026-04-23 21:32 | 43.66624 | 7.21813 | 19 ft | 3 kts | 284° |
| 2026-04-23 21:32 | 43.66633 | 7.21755 | 20 ft | 7 kts | 270° |
| 2026-04-23 21:32 | 43.66635 | 7.21705 | 22 ft | 0 kts | 273° |